Minerva Zen — SVBN3 — position and weather

sailwx.info

Track history (hours):
 
Tides and Currents Weather Stations Pressure Air Temp Water Temp Dewpoint Dewpoint Depression Visibility Wind Speed Wind Dir Waves Ship Positions

Minerva Zen

Last reported at 2015-Apr-20 02:07 UTC. Time now 2015-Apr-21 01:28 UTC.
Position N 47°33' W 052°59'.

Length 183 m; draft 7.5 m.

Type: Ship. MMSI: 241190000.

Date/timePositionNaut miles runAvg speedWind from/ knotsBaromVisibWave heightAir tempDewpointWater temp
2015-Apr-20 02:07N 47°33' W 052°59'0 0.0
2015-Apr-19 22:19N 47°33' W 052°59'0 0.0
2015-Apr-19 21:22N 47°33' W 052°59'0 0.0
2015-Apr-19 16:22N 47°33' W 052°59'0 0.0
2015-Apr-19 15:22N 47°33' W 052°59'0 0.0
2015-Apr-19 14:28N 47°33' W 052°59'0 0.0
2015-Apr-19 13:07N 47°33' W 052°59'0 0.0
2015-Apr-19 12:07N 47°33' W 052°59'0 0.0
2015-Apr-19 11:31N 47°33' W 052°59'0 0.0
2015-Apr-19 04:19N 47°33' W 052°59'0 0.0
2015-Apr-18 20:22N 47°33' W 052°59'0 0.0
2015-Apr-18 19:19N 47°33' W 052°59'0 0.1
2015-Apr-18 17:04N 47°33' W 052°59'0 0.0
2015-Apr-18 15:19N 47°33' W 052°59'0 0.0
2015-Apr-18 10:10N 47°33' W 052°59'0 0.0
2015-Apr-18 08:25N 47°33' W 052°59'0 0.0
2015-Apr-18 07:10N 47°33' W 052°59'0 0.0
2015-Apr-18 06:16N 47°33' W 052°59'0 0.0
2015-Apr-18 04:31N 47°33' W 052°59'0 0.0
2015-Apr-17 21:22N 47°33' W 052°59'0 0.0
2015-Apr-16 12:22N 47°33' W 052°59'0 0.0
2015-Apr-16 11:22N 47°33' W 052°59'0 0.0
2015-Apr-16 09:16N 47°33' W 052°59'0 0.0
2015-Apr-16 08:28N 47°33' W 052°59'0 0.0
2015-Apr-16 07:31N 47°33' W 052°59'0 0.0
2015-Apr-16 06:25N 47°33' W 052°59'0 0.0
2015-Apr-16 05:25N 47°33' W 052°59'0 0.0
2015-Apr-16 04:28N 47°33' W 052°59'0 0.0
2015-Apr-16 01:28N 47°33' W 052°59'0 0.0
2015-Apr-15 21:31N 47°33' W 052°59'0 0.0
2015-Apr-15 07:25N 47°33' W 052°59'0 0.0
2015-Apr-15 06:28N 47°33' W 052°59'0 0.1
2015-Apr-15 05:22N 47°33' W 052°59'0 0.1
2015-Apr-15 04:07N 47°33' W 052°59'0 0.0
2015-Apr-15 03:19N 47°33' W 052°59'1 0.1
2015-Apr-14 21:21N 47°32' W 052°59'5 0.1
2015-Apr-13 10:26N 47°35' W 053°04'19 6.2
2015-Apr-13 07:19N 47°41' W 052°36'7 8.6
2015-Apr-13 06:31N 47°34' W 052°38'5 4.5
2015-Apr-13 05:29N 47°31' W 052°32'9 7.7
2015-Apr-13 04:16N 47°26' W 052°21'6 7.4
2015-Apr-13 03:30N 47°21' W 052°22'8 8.3
2015-Apr-13 02:32N 47°13' W 052°25'9 8.6
2015-Apr-13 01:33N 47°05' W 052°29'  
Track history (hours):
 
Tides and Currents Weather Stations Pressure Air Temp Water Temp Dewpoint Dewpoint Depression Visibility Wind Speed Wind Dir Waves Ship Positions

Minerva Zen

Last reported at 2015-Apr-20 02:07 UTC. Time now 2015-Apr-21 01:28 UTC.
Position N 47°33' W 052°59'.

Length 183 m; draft 7.5 m.

Type: Ship. MMSI: 241190000.

Date/timePositionNaut miles runAvg speedWind from/ knotsBaromVisibWave heightAir tempDewpointWater temp
2015-Apr-20 02:07N 47°33' W 052°59'0 0.0
2015-Apr-19 22:19N 47°33' W 052°59'0 0.0
2015-Apr-19 21:22N 47°33' W 052°59'0 0.0
2015-Apr-19 16:22N 47°33' W 052°59'0 0.0
2015-Apr-19 15:22N 47°33' W 052°59'0 0.0
2015-Apr-19 14:28N 47°33' W 052°59'0 0.0
2015-Apr-19 13:07N 47°33' W 052°59'0 0.0
2015-Apr-19 12:07N 47°33' W 052°59'0 0.0
2015-Apr-19 11:31N 47°33' W 052°59'0 0.0
2015-Apr-19 04:19N 47°33' W 052°59'0 0.0
2015-Apr-18 20:22N 47°33' W 052°59'0 0.0
2015-Apr-18 19:19N 47°33' W 052°59'0 0.1
2015-Apr-18 17:04N 47°33' W 052°59'0 0.0
2015-Apr-18 15:19N 47°33' W 052°59'0 0.0
2015-Apr-18 10:10N 47°33' W 052°59'0 0.0
2015-Apr-18 08:25N 47°33' W 052°59'0 0.0
2015-Apr-18 07:10N 47°33' W 052°59'0 0.0
2015-Apr-18 06:16N 47°33' W 052°59'0 0.0
2015-Apr-18 04:31N 47°33' W 052°59'0 0.0
2015-Apr-17 21:22N 47°33' W 052°59'0 0.0
2015-Apr-16 12:22N 47°33' W 052°59'0 0.0
2015-Apr-16 11:22N 47°33' W 052°59'0 0.0
2015-Apr-16 09:16N 47°33' W 052°59'0 0.0
2015-Apr-16 08:28N 47°33' W 052°59'0 0.0
2015-Apr-16 07:31N 47°33' W 052°59'0 0.0
2015-Apr-16 06:25N 47°33' W 052°59'0 0.0
2015-Apr-16 05:25N 47°33' W 052°59'0 0.0
2015-Apr-16 04:28N 47°33' W 052°59'0 0.0
2015-Apr-16 01:28N 47°33' W 052°59'0 0.0
2015-Apr-15 21:31N 47°33' W 052°59'0 0.0
2015-Apr-15 07:25N 47°33' W 052°59'0 0.0
2015-Apr-15 06:28N 47°33' W 052°59'0 0.1
2015-Apr-15 05:22N 47°33' W 052°59'0 0.1
2015-Apr-15 04:07N 47°33' W 052°59'0 0.0
2015-Apr-15 03:19N 47°33' W 052°59'1 0.1
2015-Apr-14 21:21N 47°32' W 052°59'5 0.1
2015-Apr-13 10:26N 47°35' W 053°04'19 6.2
2015-Apr-13 07:19N 47°41' W 052°36'7 8.6
2015-Apr-13 06:31N 47°34' W 052°38'5 4.5
2015-Apr-13 05:29N 47°31' W 052°32'9 7.7
2015-Apr-13 04:16N 47°26' W 052°21'6 7.4
2015-Apr-13 03:30N 47°21' W 052°22'8 8.3
2015-Apr-13 02:32N 47°13' W 052°25'9 8.6
2015-Apr-13 01:33N 47°05' W 052°29'  

Dump ship's entire track history